»·PEaware :: BAW906 EGLL-EDDF

BAW906 :: EGLL-EDDF

FLIGHT INFORMATION

Flight Status: Arrived
Operator:
British Airways
More flights by this operator :: More flights under this callsign
Pilot: Bryan S. (13276)
Aircraft: AIRBUS A320
(A320)
More flights by this aircraft type
Origin: EGLL Heathrow
United Kingdom
Destination: EDDF Frankfurt/Main
Germany
More flights between these airports :: More routes between these airports
Route: EGLL DET2G DET UQ70 KOK UL607 SPI UZ112 RASVO UNOKO UNOK1R EDDF
File this flight plan on PilotEdge
Remarks:
Altitude:
(Current/Filed)
37,000ft
Speed:
(Current/Filed)
447kts
Departed: 02-Feb-17 03:26 PM
Arrived: 02-Feb-17 04:29 PM
Distance/Time
Traveled:
352nm/1:03
Distance/Time
To Go:
Arrived

Flight Plot

Page will automatically refresh every two minutes.

Flight plan parsing failed; only flown route is shown


Map Options




Map Legend


Flown Route
Filed Route
Departure Airport
Arrival Airport
Navaid (VOR, NDB)
Fix

Horizontal Profiles

Position Reports

Time Latitude Longitude Heading Altitude Ground
Speed
02-Feb-17 14:43 51.474062 -0.488372 179 90ft 0kts
02-Feb-17 14:44 51.474062 -0.488372 179 90ft 0kts
02-Feb-17 14:45 51.474062 -0.488372 179 90ft 0kts
02-Feb-17 14:46 51.474062 -0.488372 179 90ft 0kts
02-Feb-17 14:47 51.474062 -0.488372 179 90ft 0kts
02-Feb-17 14:48 51.474062 -0.488372 179 90ft 0kts
02-Feb-17 14:49 51.474062 -0.488372 179 90ft 0kts
02-Feb-17 14:50 51.474062 -0.488372 179 90ft 0kts
02-Feb-17 14:51 51.474062 -0.488372 179 90ft 0kts
02-Feb-17 14:52 51.474669 -0.488372 179 90ft 2kts
02-Feb-17 14:53 51.474806 -0.488372 179 90ft 0kts
02-Feb-17 14:54 51.474806 -0.488372 179 90ft 0kts
02-Feb-17 14:55 51.474806 -0.488372 179 90ft 0kts
02-Feb-17 14:56 51.474806 -0.488372 179 90ft 0kts
02-Feb-17 14:57 51.474806 -0.488372 179 90ft 0kts
02-Feb-17 14:58 51.474806 -0.488372 179 90ft 0kts
02-Feb-17 14:59 51.474806 -0.488372 179 90ft 0kts
02-Feb-17 15:00 51.474802 -0.488372 179 90ft 0kts
02-Feb-17 15:01 51.474796 -0.488372 179 90ft 0kts
02-Feb-17 15:02 51.474791 -0.488372 179 90ft 0kts
02-Feb-17 15:03 51.474785 -0.488372 179 90ft 0kts
02-Feb-17 15:04 51.474779 -0.488372 179 90ft 0kts
02-Feb-17 15:05 51.474774 -0.488372 179 90ft 0kts
02-Feb-17 15:06 51.474731 -0.487477 77 90ft 4kts
02-Feb-17 15:07 51.474827 -0.484399 89 90ft 7kts
02-Feb-17 15:08 51.474841 -0.481866 91 90ft 6kts
02-Feb-17 15:09 51.474849 -0.477828 90 90ft 10kts
02-Feb-17 15:10 51.475330 -0.473620 9 90ft 7kts
02-Feb-17 15:11 51.475815 -0.470770 87 90ft 10kts
02-Feb-17 15:12 51.474491 -0.469023 166 90ft 5kts
02-Feb-17 15:13 51.473241 -0.468702 178 90ft 6kts
02-Feb-17 15:14 51.470997 -0.468666 179 90ft 7kts
02-Feb-17 15:15 51.469695 -0.466482 143 90ft 14kts
02-Feb-17 15:16 51.467551 -0.464018 125 90ft 10kts
02-Feb-17 15:17 51.467434 -0.460140 89 90ft 6kts
02-Feb-17 15:18 51.467435 -0.455461 90 90ft 16kts
02-Feb-17 15:19 51.467449 -0.449953 91 90ft 11kts
02-Feb-17 15:20 51.466601 -0.447626 99 90ft 3kts
02-Feb-17 15:21 51.466590 -0.443836 89 90ft 11kts
02-Feb-17 15:22 51.466611 -0.438994 86 90ft 8kts
02-Feb-17 15:23 51.466655 -0.436187 90 90ft 2kts
02-Feb-17 15:24 51.465722 -0.436064 181 90ft 4kts
02-Feb-17 15:25 51.464906 -0.437171 267 90ft 2kts
02-Feb-17 15:26 51.464880 -0.471592 266 236ft 166kts
02-Feb-17 15:27 51.465836 -0.549256 254 2901ft 173kts
02-Feb-17 15:28 51.426421 -0.547679 153 5045ft 181kts
02-Feb-17 15:29 51.378645 -0.489526 148 5895ft 245kts
02-Feb-17 15:30 51.338364 -0.393648 131 6634ft 272kts
02-Feb-17 15:31 51.317530 -0.273313 105 10070ft 301kts
02-Feb-17 15:32 51.316517 -0.140158 100 13393ft 305kts
02-Feb-17 15:33 51.313510 -0.000914 103 16160ft 317kts
02-Feb-17 15:34 51.309126 0.156149 102 16819ft 387kts
02-Feb-17 15:35 51.306267 0.331739 101 19156ft 397kts
02-Feb-17 15:36 51.302939 0.511512 101 22057ft 415kts
02-Feb-17 15:37 51.299390 0.695602 104 24532ft 428kts
02-Feb-17 15:38 51.291717 0.887035 104 27064ft 431kts
02-Feb-17 15:39 51.284049 1.083926 104 28407ft 454kts
02-Feb-17 15:40 51.275837 1.286678 104 30147ft 460kts
02-Feb-17 15:41 51.268042 1.488676 104 30555ft 455kts
02-Feb-17 15:42 51.257573 1.691786 105 31752ft 457kts
02-Feb-17 15:43 51.246539 1.892792 104 33147ft 463kts
02-Feb-17 15:44 51.236626 2.098490 103 34511ft 464kts
02-Feb-17 15:45 51.227354 2.302750 102 35818ft 461kts
02-Feb-17 15:46 51.191868 2.488962 131 36561ft 426kts
02-Feb-17 15:47 51.109583 2.623509 135 36607ft 426kts
02-Feb-17 15:48 51.056871 2.795069 110 36609ft 443kts
02-Feb-17 15:49 51.027554 2.985186 110 36608ft 443kts
02-Feb-17 15:50 50.993257 3.172840 112 36609ft 446kts
02-Feb-17 15:51 50.957672 3.361262 111 36609ft 446kts
02-Feb-17 15:52 50.922851 3.550641 111 36610ft 447kts
02-Feb-17 15:53 50.887993 3.739252 112 36609ft 448kts
02-Feb-17 15:54 50.851215 3.927459 112 36611ft 449kts
02-Feb-17 15:55 50.814016 4.115414 112 36625ft 448kts
02-Feb-17 15:56 50.777446 4.303106 112 36646ft 450kts
02-Feb-17 15:57 50.741425 4.492644 112 36652ft 448kts
02-Feb-17 15:58 50.704151 4.681568 112 36653ft 455kts
02-Feb-17 15:59 50.665130 4.870651 113 36664ft 454kts
02-Feb-17 16:00 50.626048 5.058679 113 36668ft 452kts
02-Feb-17 16:01 50.586770 5.246981 113 36688ft 452kts
02-Feb-17 16:02 50.547200 5.434899 113 36697ft 452kts
02-Feb-17 16:03 50.509120 5.623123 108 36700ft 456kts
02-Feb-17 16:04 50.493397 5.822612 98 36702ft 464kts
02-Feb-17 16:05 50.483675 6.022814 99 36168ft 445kts
02-Feb-17 16:06 50.471405 6.215863 100 33503ft 438kts
02-Feb-17 16:07 50.459616 6.402085 100 31004ft 421kts
02-Feb-17 16:08 50.448479 6.581494 99 28506ft 407kts
02-Feb-17 16:09 50.438173 6.755740 98 26003ft 395kts
02-Feb-17 16:10 50.439382 6.923844 88 24644ft 373kts
02-Feb-17 16:11 50.447353 7.085542 89 22038ft 372kts
02-Feb-17 16:12 50.451805 7.242500 97 19967ft 354kts
02-Feb-17 16:13 50.411343 7.372645 144 17799ft 324kts
02-Feb-17 16:14 50.333114 7.433048 163 15706ft 310kts
02-Feb-17 16:15 50.259127 7.491994 148 14195ft 296kts
02-Feb-17 16:16 50.195341 7.572644 145 12408ft 292kts
02-Feb-17 16:17 50.132502 7.651540 146 10706ft 287kts
02-Feb-17 16:18 50.071484 7.729629 144 9011ft 277kts
02-Feb-17 16:19 50.016382 7.807468 135 7304ft 263kts
02-Feb-17 16:20 49.974802 7.898488 130 5597ft 249kts
02-Feb-17 16:21 49.937878 7.985007 122 5013ft 240kts
02-Feb-17 16:22 49.939544 8.093802 79 5025ft 262kts
02-Feb-17 16:23 49.967924 8.198657 72 4255ft 269kts
02-Feb-17 16:24 49.986745 8.291799 71 2942ft 193kts
02-Feb-17 16:25 50.004100 8.359441 67 2140ft 156kts
02-Feb-17 16:26 50.015021 8.404560 69 1497ft 121kts
02-Feb-17 16:27 50.026464 8.452373 69 1077ft 143kts
02-Feb-17 16:28 50.037372 8.498562 67 387ft 133kts
02-Feb-17 16:29 50.044697 8.534001 149 377ft 15kts
02-Feb-17 16:30 50.044069 8.537247 82 394ft 13kts

Navigation Log

Ident Type
Flight plan parsing failed, navigation log unavailable